sensor_id;sensor_type;location;lat;lon;timestamp;pressure;altitude;pressure_sealevel;temperature;humidity
13124;BME280;6627;50.920;12.050;2024-01-15T00:00:20;96690.03;;;8.02;47.91
13124;BME280;6627;50.920;12.050;2024-01-15T00:03:04;96680.06;;;7.70;48.21
13124;BME280;6627;50.920;12.050;2024-01-15T00:05:33;96670.53;;;7.39;49.24
13124;BME280;6627;50.920;12.050;2024-01-15T00:08:03;96675.13;;;7.39;49.21
13124;BME280;6627;50.920;12.050;2024-01-15T00:10:31;96726.19;;;7.68;49.20
13124;BME280;6627;50.920;12.050;2024-01-15T00:12:59;96586.44;;;7.09;48.73
13124;BME280;6627;50.920;12.050;2024-01-15T00:15:29;96671.84;;;7.54;48.96
13124;BME280;6627;50.920;12.050;2024-01-15T00:17:59;96669.97;;;7.67;48.52
13124;BME280;6627;50.920;12.050;2024-01-15T00:20:26;96638.13;;;7.36;48.96
13124;BME280;6627;50.920;12.050;2024-01-15T00:22:56;96685.09;;;7.59;48.98
13124;BME280;6627;50.920;12.050;2024-01-15T00:25:26;96679.88;;;7.75;48.70
13124;BME280;6627;50.920;12.050;2024-01-15T00:27:53;96569.75;;;6.95;49.20
13124;BME280;6627;50.920;12.050;2024-01-15T00:30:22;96652.44;;;7.27;49.46
13124;BME280;6627;50.920;12.050;2024-01-15T00:32:51;96590.91;;;7.05;49.38
13124;BME280;6627;50.920;12.050;2024-01-15T00:35:22;96632.69;;;7.23;49.44
13124;BME280;6627;50.920;12.050;2024-01-15T00:37:51;96659.53;;;7.32;49.54
13124;BME280;6627;50.920;12.050;2024-01-15T00:40:34;96592.81;;;7.04;49.10
13124;BME280;6627;50.920;12.050;2024-01-15T00:43:21;96575.88;;;7.04;49.37
13124;BME280;6627;50.920;12.050;2024-01-15T00:45:48;96628.75;;;7.54;48.36
13124;BME280;6627;50.920;12.050;2024-01-15T00:48:16;96692.75;;;7.69;48.88
13124;BME280;6627;50.920;12.050;2024-01-15T00:50:43;96568.03;;;7.11;48.84
13124;BME280;6627;50.920;12.050;2024-01-15T00:53:10;96607.53;;;7.19;48.74
13124;BME280;6627;50.920;12.050;2024-01-15T00:55:39;96628.50;;;7.47;48.19
13124;BME280;6627;50.920;12.050;2024-01-15T00:58:07;96643.78;;;7.55;48.41
13124;BME280;6627;50.920;12.050;2024-01-15T01:00:34;96628.25;;;7.40;48.93
13124;BME280;6627;50.920;12.050;2024-01-15T01:03:03;96614.25;;;7.13;49.17
13124;BME280;6627;50.920;12.050;2024-01-15T01:05:30;96543.03;;;6.77;49.60
13124;BME280;6627;50.920;12.050;2024-01-15T01:08:04;96634.78;;;7.51;48.91
13124;BME280;6627;50.920;12.050;2024-01-15T01:10:32;96562.16;;;6.97;49.29
13124;BME280;6627;50.920;12.050;2024-01-15T01:13:00;96557.38;;;6.81;49.59
13124;BME280;6627;50.920;12.050;2024-01-15T01:15:28;96605.91;;;7.27;48.99
13124;BME280;6627;50.920;12.050;2024-01-15T01:17:55;96515.38;;;6.56;50.00
13124;BME280;6627;50.920;12.050;2024-01-15T01:20:23;96528.47;;;6.78;49.40
13124;BME280;6627;50.920;12.050;2024-01-15T01:22:50;96643.09;;;7.46;49.14
13124;BME280;6627;50.920;12.050;2024-01-15T01:25:17;96565.78;;;6.80;49.84
13124;BME280;6627;50.920;12.050;2024-01-15T01:27:45;96567.41;;;6.72;50.02
13124;BME280;6627;50.920;12.050;2024-01-15T01:30:14;96577.81;;;6.82;49.86
13124;BME280;6627;50.920;12.050;2024-01-15T01:32:41;96616.75;;;6.76;50.40
13124;BME280;6627;50.920;12.050;2024-01-15T01:35:09;96601.16;;;6.91;49.66
13124;BME280;6627;50.920;12.050;2024-01-15T01:37:37;96632.47;;;7.28;49.30
13124;BME280;6627;50.920;12.050;2024-01-15T01:40:06;96582.13;;;6.96;49.58
13124;BME280;6627;50.920;12.050;2024-01-15T01:42:33;96555.38;;;6.57;50.01
13124;BME280;6627;50.920;12.050;2024-01-15T01:45:02;96583.13;;;6.70;50.41
13124;BME280;6627;50.920;12.050;2024-01-15T01:47:32;96586.53;;;6.79;49.85
13124;BME280;6627;50.920;12.050;2024-01-15T01:50:01;96578.97;;;6.52;50.99
13124;BME280;6627;50.920;12.050;2024-01-15T01:52:28;96558.25;;;6.31;50.44
13124;BME280;6627;50.920;12.050;2024-01-15T01:55:04;96623.47;;;6.91;50.05
13124;BME280;6627;50.920;12.050;2024-01-15T01:57:34;96515.25;;;6.31;50.54
13124;BME280;6627;50.920;12.050;2024-01-15T02:00:04;96584.09;;;6.66;50.30
13124;BME280;6627;50.920;12.050;2024-01-15T02:02:34;96553.47;;;6.58;50.05
13124;BME280;6627;50.920;12.050;2024-01-15T02:05:04;96538.59;;;6.40;50.23
13124;BME280;6627;50.920;12.050;2024-01-15T02:07:34;96588.28;;;6.75;50.48
13124;BME280;6627;50.920;12.050;2024-01-15T02:10:03;96494.78;;;6.18;50.49
13124;BME280;6627;50.920;12.050;2024-01-15T02:12:33;96543.19;;;6.39;50.03
13124;BME280;6627;50.920;12.050;2024-01-15T02:15:01;96552.47;;;6.63;49.83
13124;BME280;6627;50.920;12.050;2024-01-15T02:17:29;96478.94;;;6.25;49.84
13124;BME280;6627;50.920;12.050;2024-01-15T02:19:57;96572.66;;;6.90;49.14
13124;BME280;6627;50.920;12.050;2024-01-15T02:22:25;96629.84;;;7.20;49.42
13124;BME280;6627;50.920;12.050;2024-01-15T02:24:54;96557.69;;;7.01;48.77
13124;BME280;6627;50.920;12.050;2024-01-15T02:27:21;96539.66;;;6.80;49.28
13124;BME280;6627;50.920;12.050;2024-01-15T02:29:50;96516.28;;;6.60;49.57
13124;BME280;6627;50.920;12.050;2024-01-15T02:32:18;96585.16;;;6.73;50.63
13124;BME280;6627;50.920;12.050;2024-01-15T02:34:46;96499.72;;;6.16;50.92
13124;BME280;6627;50.920;12.050;2024-01-15T02:37:15;96563.31;;;6.54;50.80
13124;BME280;6627;50.920;12.050;2024-01-15T02:39:42;96488.50;;;6.14;50.86
13124;BME280;6627;50.920;12.050;2024-01-15T02:42:11;96527.94;;;6.22;51.03
13124;BME280;6627;50.920;12.050;2024-01-15T02:44:38;96592.09;;;6.74;50.32
13124;BME280;6627;50.920;12.050;2024-01-15T02:47:05;96522.84;;;6.29;51.27
13124;BME280;6627;50.920;12.050;2024-01-15T02:49:32;96537.00;;;6.39;50.82
13124;BME280;6627;50.920;12.050;2024-01-15T02:52:06;96595.09;;;6.94;49.65
13124;BME280;6627;50.920;12.050;2024-01-15T02:54:34;96505.88;;;6.38;50.23
13124;BME280;6627;50.920;12.050;2024-01-15T02:57:04;96564.00;;;6.84;49.51
13124;BME280;6627;50.920;12.050;2024-01-15T02:59:33;96556.28;;;6.82;49.54
13124;BME280;6627;50.920;12.050;2024-01-15T03:02:01;96560.81;;;7.03;49.04
13124;BME280;6627;50.920;12.050;2024-01-15T03:04:28;96462.41;;;6.36;49.45
13124;BME280;6627;50.920;12.050;2024-01-15T03:06:56;96522.69;;;6.68;49.41
13124;BME280;6627;50.920;12.050;2024-01-15T03:09:23;96484.41;;;6.50;49.82
13124;BME280;6627;50.920;12.050;2024-01-15T03:11:54;96562.75;;;6.81;49.82
13124;BME280;6627;50.920;12.050;2024-01-15T03:14:21;96544.19;;;6.89;49.05
13124;BME280;6627;50.920;12.050;2024-01-15T03:17:00;96550.75;;;7.00;49.16
13124;BME280;6627;50.920;12.050;2024-01-15T03:19:30;96528.19;;;6.71;49.46
13124;BME280;6627;50.920;12.050;2024-01-15T03:21:57;96630.88;;;7.48;48.35
13124;BME280;6627;50.920;12.050;2024-01-15T03:24:27;96544.41;;;7.29;47.58
13124;BME280;6627;50.920;12.050;2024-01-15T03:26:55;96547.66;;;7.22;47.84
13124;BME280;6627;50.920;12.050;2024-01-15T03:29:22;96496.84;;;6.75;48.79
13124;BME280;6627;50.920;12.050;2024-01-15T03:31:51;96479.31;;;6.57;48.72
13124;BME280;6627;50.920;12.050;2024-01-15T03:34:19;96456.81;;;6.41;49.20
13124;BME280;6627;50.920;12.050;2024-01-15T03:36:47;96528.69;;;6.86;48.71
13124;BME280;6627;50.920;12.050;2024-01-15T03:39:14;96461.75;;;6.39;49.56
13124;BME280;6627;50.920;12.050;2024-01-15T03:41:42;96529.63;;;6.90;49.03
13124;BME280;6627;50.920;12.050;2024-01-15T03:44:10;96413.06;;;6.19;49.53
13124;BME280;6627;50.920;12.050;2024-01-15T03:46:38;96501.97;;;6.68;49.13
13124;BME280;6627;50.920;12.050;2024-01-15T03:49:06;96633.69;;;7.64;48.20
13124;BME280;6627;50.920;12.050;2024-01-15T03:51:40;96576.44;;;7.55;47.80
13124;BME280;6627;50.920;12.050;2024-01-15T03:54:07;96556.66;;;7.39;47.73
13124;BME280;6627;50.920;12.050;2024-01-15T03:56:34;96608.81;;;7.79;47.27
13124;BME280;6627;50.920;12.050;2024-01-15T03:59:02;96532.91;;;7.41;47.26
13124;BME280;6627;50.920;12.050;2024-01-15T04:01:30;96549.50;;;7.30;47.67
13124;BME280;6627;50.920;12.050;2024-01-15T04:03:57;96487.47;;;6.94;47.89
13124;BME280;6627;50.920;12.050;2024-01-15T04:06:26;96510.66;;;7.19;47.36
13124;BME280;6627;50.920;12.050;2024-01-15T04:08:55;96496.84;;;6.75;48.69
13124;BME280;6627;50.920;12.050;2024-01-15T04:11:23;96435.66;;;6.39;48.75
13124;BME280;6627;50.920;12.050;2024-01-15T04:13:51;96568.34;;;7.43;47.52
13124;BME280;6627;50.920;12.050;2024-01-15T04:16:19;96649.72;;;8.06;46.68
13124;BME280;6627;50.920;12.050;2024-01-15T04:18:47;96438.09;;;6.65;48.19
13124;BME280;6627;50.920;12.050;2024-01-15T04:21:14;96618.19;;;7.49;47.99
13124;BME280;6627;50.920;12.050;2024-01-15T04:23:42;96582.50;;;7.52;47.50
13124;BME280;6627;50.920;12.050;2024-01-15T04:26:10;96514.69;;;7.13;47.30
13124;BME280;6627;50.920;12.050;2024-01-15T04:28:38;96513.06;;;7.00;47.82
13124;BME280;6627;50.920;12.050;2024-01-15T04:31:05;96557.56;;;7.43;47.09
13124;BME280;6627;50.920;12.050;2024-01-15T04:33:34;96522.06;;;7.04;47.83
13124;BME280;6627;50.920;12.050;2024-01-15T04:36:03;96410.09;;;6.66;47.24
13124;BME280;6627;50.920;12.050;2024-01-15T04:38:30;96495.50;;;6.81;48.04
13124;BME280;6627;50.920;12.050;2024-01-15T04:40:58;96561.81;;;7.31;47.19
13124;BME280;6627;50.920;12.050;2024-01-15T04:43:27;96546.94;;;7.01;48.28
13124;BME280;6627;50.920;12.050;2024-01-15T04:45:55;96584.50;;;7.43;47.37
13124;BME280;6627;50.920;12.050;2024-01-15T04:48:23;96565.66;;;7.30;47.25
13124;BME280;6627;50.920;12.050;2024-01-15T04:50:50;96525.16;;;6.94;47.95
13124;BME280;6627;50.920;12.050;2024-01-15T04:53:18;96541.78;;;7.08;47.88
13124;BME280;6627;50.920;12.050;2024-01-15T04:55:45;96507.19;;;6.86;47.61
13124;BME280;6627;50.920;12.050;2024-01-15T04:58:14;96480.06;;;6.78;47.67
13124;BME280;6627;50.920;12.050;2024-01-15T05:00:43;96538.03;;;7.33;46.83
13124;BME280;6627;50.920;12.050;2024-01-15T05:03:11;96362.50;;;6.34;47.57
13124;BME280;6627;50.920;12.050;2024-01-15T05:05:38;96597.13;;;7.30;47.93
13124;BME280;6627;50.920;12.050;2024-01-15T05:08:06;96633.97;;;7.83;46.65
13124;BME280;6627;50.920;12.050;2024-01-15T05:10:34;96463.00;;;6.74;47.71
13124;BME280;6627;50.920;12.050;2024-01-15T05:13:01;96518.38;;;7.21;47.14
13124;BME280;6627;50.920;12.050;2024-01-15T05:15:28;96485.81;;;7.01;47.26
13124;BME280;6627;50.920;12.050;2024-01-15T05:17:57;96573.13;;;7.70;46.42
13124;BME280;6627;50.920;12.050;2024-01-15T05:20:24;96426.72;;;6.93;46.36
13124;BME280;6627;50.920;12.050;2024-01-15T05:22:52;96524.59;;;7.46;46.35
13124;BME280;6627;50.920;12.050;2024-01-15T05:25:21;96516.19;;;7.47;46.12
13124;BME280;6627;50.920;12.050;2024-01-15T05:27:49;96458.38;;;7.20;46.50
13124;BME280;6627;50.920;12.050;2024-01-15T05:30:23;96444.81;;;7.04;46.86
13124;BME280;6627;50.920;12.050;2024-01-15T05:32:58;96477.91;;;7.29;46.54
13124;BME280;6627;50.920;12.050;2024-01-15T05:35:26;96421.97;;;6.65;47.33
13124;BME280;6627;50.920;12.050;2024-01-15T05:38:01;96478.00;;;6.75;47.43
13124;BME280;6627;50.920;12.050;2024-01-15T05:40:30;96375.03;;;6.29;47.80
13124;BME280;6627;50.920;12.050;2024-01-15T05:42:58;96417.53;;;6.48;48.05
13124;BME280;6627;50.920;12.050;2024-01-15T05:45:27;96435.38;;;6.53;48.05
13124;BME280;6627;50.920;12.050;2024-01-15T05:47:57;96382.41;;;6.32;47.85
13124;BME280;6627;50.920;12.050;2024-01-15T05:50:28;96458.66;;;6.82;47.56
13124;BME280;6627;50.920;12.050;2024-01-15T05:52:56;96452.47;;;6.69;47.53
13124;BME280;6627;50.920;12.050;2024-01-15T05:55:43;96378.16;;;6.31;47.53
13124;BME280;6627;50.920;12.050;2024-01-15T05:58:13;96575.13;;;7.86;45.69
13124;BME280;6627;50.920;12.050;2024-01-15T06:00:45;96312.63;;;6.12;47.61
13124;BME280;6627;50.920;12.050;2024-01-15T06:03:33;96465.72;;;6.87;47.09
13124;BME280;6627;50.920;12.050;2024-01-15T06:06:01;96417.00;;;6.55;47.37
13124;BME280;6627;50.920;12.050;2024-01-15T06:08:35;96481.66;;;6.92;47.37
13124;BME280;6627;50.920;12.050;2024-01-15T06:11:04;96440.91;;;6.69;47.27
13124;BME280;6627;50.920;12.050;2024-01-15T06:13:35;96337.91;;;5.90;48.37
13124;BME280;6627;50.920;12.050;2024-01-15T06:16:13;96383.81;;;6.39;47.49
13124;BME280;6627;50.920;12.050;2024-01-15T06:18:56;96410.75;;;6.63;47.03
13124;BME280;6627;50.920;12.050;2024-01-15T06:21:23;96400.63;;;6.48;47.67
13124;BME280;6627;50.920;12.050;2024-01-15T06:23:53;96451.59;;;6.77;47.04
13124;BME280;6627;50.920;12.050;2024-01-15T06:26:23;96411.16;;;6.53;47.44
13124;BME280;6627;50.920;12.050;2024-01-15T06:28:53;96450.69;;;6.73;47.51
13124;BME280;6627;50.920;12.050;2024-01-15T06:31:41;96470.00;;;6.88;47.10
13124;BME280;6627;50.920;12.050;2024-01-15T06:34:11;96408.91;;;6.55;47.46
13124;BME280;6627;50.920;12.050;2024-01-15T06:36:57;96424.47;;;6.95;46.23
13124;BME280;6627;50.920;12.050;2024-01-15T06:39:27;96428.72;;;6.83;46.68
13124;BME280;6627;50.920;12.050;2024-01-15T06:42:14;96425.81;;;6.89;46.44
13124;BME280;6627;50.920;12.050;2024-01-15T06:44:46;96360.53;;;6.43;46.78
13124;BME280;6627;50.920;12.050;2024-01-15T06:47:32;96461.69;;;6.93;46.83
13124;BME280;6627;50.920;12.050;2024-01-15T06:50:05;96426.00;;;6.71;46.80
13124;BME280;6627;50.920;12.050;2024-01-15T06:52:33;96398.91;;;6.89;45.97
13124;BME280;6627;50.920;12.050;2024-01-15T06:55:20;96295.09;;;5.93;47.67
13124;BME280;6627;50.920;12.050;2024-01-15T06:58:07;96377.72;;;6.29;47.71
13124;BME280;6627;50.920;12.050;2024-01-15T07:00:40;96434.03;;;6.59;47.24
13124;BME280;6627;50.920;12.050;2024-01-15T07:03:08;96414.34;;;6.67;46.84
13124;BME280;6627;50.920;12.050;2024-01-15T07:05:37;96496.31;;;7.27;46.25
13124;BME280;6627;50.920;12.050;2024-01-15T07:08:10;96296.81;;;6.10;46.84
13124;BME280;6627;50.920;12.050;2024-01-15T07:10:40;96436.09;;;6.74;46.79
13124;BME280;6627;50.920;12.050;2024-01-15T07:13:09;96504.69;;;7.26;46.42
13124;BME280;6627;50.920;12.050;2024-01-15T07:15:56;96418.84;;;6.75;46.65
13124;BME280;6627;50.920;12.050;2024-01-15T07:18:40;96365.91;;;6.43;46.96
13124;BME280;6627;50.920;12.050;2024-01-15T07:21:19;96486.53;;;7.23;46.09
13124;BME280;6627;50.920;12.050;2024-01-15T07:23:51;96527.94;;;7.43;46.36
13124;BME280;6627;50.920;12.050;2024-01-15T07:26:38;96403.63;;;6.79;45.98
13124;BME280;6627;50.920;12.050;2024-01-15T07:29:05;96382.50;;;6.57;46.66
13124;BME280;6627;50.920;12.050;2024-01-15T07:31:33;96407.72;;;6.31;47.89
13124;BME280;6627;50.920;12.050;2024-01-15T07:34:20;96338.31;;;6.00;47.50
13124;BME280;6627;50.920;12.050;2024-01-15T07:36:50;96364.03;;;6.22;46.83
13124;BME280;6627;50.920;12.050;2024-01-15T07:39:19;96395.16;;;6.23;48.03
13124;BME280;6627;50.920;12.050;2024-01-15T07:41:49;96458.44;;;6.54;47.52
13124;BME280;6627;50.920;12.050;2024-01-15T07:44:17;96458.09;;;6.89;46.48
13124;BME280;6627;50.920;12.050;2024-01-15T07:46:45;96471.13;;;6.87;46.69
13124;BME280;6627;50.920;12.050;2024-01-15T07:49:20;96478.00;;;6.75;46.87
13124;BME280;6627;50.920;12.050;2024-01-15T07:51:52;96430.91;;;6.57;46.81
13124;BME280;6627;50.920;12.050;2024-01-15T07:54:20;96531.75;;;7.29;46.04
13124;BME280;6627;50.920;12.050;2024-01-15T07:56:55;96406.75;;;6.36;46.93
13124;BME280;6627;50.920;12.050;2024-01-15T07:59:23;96488.56;;;6.80;46.85
13124;BME280;6627;50.920;12.050;2024-01-15T08:01:52;96465.13;;;6.69;46.93
13124;BME280;6627;50.920;12.050;2024-01-15T08:04:21;96530.34;;;7.11;46.23
13124;BME280;6627;50.920;12.050;2024-01-15T08:06:48;96531.59;;;7.14;46.13
13124;BME280;6627;50.920;12.050;2024-01-15T08:09:36;96495.53;;;7.27;45.56
13124;BME280;6627;50.920;12.050;2024-01-15T08:12:23;96423.09;;;6.76;45.88
13124;BME280;6627;50.920;12.050;2024-01-15T08:14:51;96436.47;;;6.85;45.75
13124;BME280;6627;50.920;12.050;2024-01-15T08:17:37;96458.63;;;7.27;45.13
13124;BME280;6627;50.920;12.050;2024-01-15T08:20:07;96448.03;;;6.98;45.86
13124;BME280;6627;50.920;12.050;2024-01-15T08:22:39;96406.50;;;6.62;46.44
13124;BME280;6627;50.920;12.050;2024-01-15T08:25:09;96430.72;;;6.74;46.23
13124;BME280;6627;50.920;12.050;2024-01-15T08:27:37;96432.53;;;6.82;46.01
13124;BME280;6627;50.920;12.050;2024-01-15T08:30:06;96385.63;;;6.59;46.03
13124;BME280;6627;50.920;12.050;2024-01-15T08:32:37;96381.84;;;6.60;45.41
13124;BME280;6627;50.920;12.050;2024-01-15T08:35:12;96410.53;;;6.68;45.66
13124;BME280;6627;50.920;12.050;2024-01-15T08:37:58;96334.03;;;6.32;45.94
13124;BME280;6627;50.920;12.050;2024-01-15T08:40:31;96353.69;;;6.45;45.56
13124;BME280;6627;50.920;12.050;2024-01-15T08:43:00;96464.44;;;7.17;45.03
13124;BME280;6627;50.920;12.050;2024-01-15T08:45:29;96265.69;;;6.09;45.94
13124;BME280;6627;50.920;12.050;2024-01-15T08:47:58;96452.09;;;7.16;44.84
13124;BME280;6627;50.920;12.050;2024-01-15T08:50:32;96413.94;;;6.90;45.02
13124;BME280;6627;50.920;12.050;2024-01-15T08:53:20;96465.13;;;7.14;45.56
13124;BME280;6627;50.920;12.050;2024-01-15T08:55:50;96352.72;;;6.62;45.49
13124;BME280;6627;50.920;12.050;2024-01-15T08:58:20;96365.16;;;6.67;45.38
13124;BME280;6627;50.920;12.050;2024-01-15T09:00:48;96417.97;;;6.83;45.94
13124;BME280;6627;50.920;12.050;2024-01-15T09:03:15;96338.31;;;6.34;46.11
13124;BME280;6627;50.920;12.050;2024-01-15T09:05:44;96374.19;;;6.50;46.08
13124;BME280;6627;50.920;12.050;2024-01-15T09:08:14;96323.66;;;6.43;45.73
13124;BME280;6627;50.920;12.050;2024-01-15T09:10:41;96393.50;;;6.76;45.67
13124;BME280;6627;50.920;12.050;2024-01-15T09:13:19;96355.16;;;6.55;45.77
13124;BME280;6627;50.920;12.050;2024-01-15T09:15:47;96459.84;;;7.18;45.34
13124;BME280;6627;50.920;12.050;2024-01-15T09:18:15;96284.56;;;6.46;45.21
13124;BME280;6627;50.920;12.050;2024-01-15T09:21:04;96417.31;;;6.87;45.73
13124;BME280;6627;50.920;12.050;2024-01-15T09:23:31;96400.47;;;6.90;45.71
13124;BME280;6627;50.920;12.050;2024-01-15T09:26:00;96315.91;;;6.42;45.84
13124;BME280;6627;50.920;12.050;2024-01-15T09:28:31;96517.44;;;7.62;45.26
13124;BME280;6627;50.920;12.050;2024-01-15T09:31:02;96406.13;;;6.97;45.43
13124;BME280;6627;50.920;12.050;2024-01-15T09:33:30;96390.88;;;7.01;45.10
13124;BME280;6627;50.920;12.050;2024-01-15T09:36:01;96472.44;;;7.50;44.83
13124;BME280;6627;50.920;12.050;2024-01-15T09:38:31;96314.16;;;6.58;45.16
13124;BME280;6627;50.920;12.050;2024-01-15T09:41:00;96464.56;;;7.45;44.83
13124;BME280;6627;50.920;12.050;2024-01-15T09:43:31;96383.81;;;6.96;45.20
13124;BME280;6627;50.920;12.050;2024-01-15T09:46:01;96415.09;;;7.38;44.36
13124;BME280;6627;50.920;12.050;2024-01-15T09:48:31;96355.91;;;7.01;44.31
13124;BME280;6627;50.920;12.050;2024-01-15T09:51:01;96384.81;;;7.28;44.29
13124;BME280;6627;50.920;12.050;2024-01-15T09:53:29;96453.59;;;7.75;43.87
13124;BME280;6627;50.920;12.050;2024-01-15T09:55:58;96387.75;;;7.36;44.29
13124;BME280;6627;50.920;12.050;2024-01-15T09:58:31;96359.47;;;7.05;44.42
13124;BME280;6627;50.920;12.050;2024-01-15T10:01:01;96386.50;;;7.21;44.42
13124;BME280;6627;50.920;12.050;2024-01-15T10:03:50;96450.19;;;7.78;43.91
13124;BME280;6627;50.920;12.050;2024-01-15T10:06:22;96384.28;;;7.35;44.20
13124;BME280;6627;50.920;12.050;2024-01-15T10:08:51;96435.94;;;7.65;44.27
13124;BME280;6627;50.920;12.050;2024-01-15T10:11:20;96329.00;;;7.01;44.69
13124;BME280;6627;50.920;12.050;2024-01-15T10:13:58;96413.78;;;7.44;44.44
13124;BME280;6627;50.920;12.050;2024-01-15T10:16:29;96400.16;;;7.52;44.16
13124;BME280;6627;50.920;12.050;2024-01-15T10:18:57;96326.72;;;7.15;44.49
13124;BME280;6627;50.920;12.050;2024-01-15T10:21:32;96355.22;;;7.28;44.17
13124;BME280;6627;50.920;12.050;2024-01-15T10:24:04;96447.84;;;7.89;43.95
13124;BME280;6627;50.920;12.050;2024-01-15T10:26:32;96315.97;;;7.15;43.91
13124;BME280;6627;50.920;12.050;2024-01-15T10:29:02;96435.41;;;7.72;44.01
13124;BME280;6627;50.920;12.050;2024-01-15T10:31:32;96391.09;;;7.57;44.14
13124;BME280;6627;50.920;12.050;2024-01-15T10:34:10;96471.66;;;8.27;43.17
13124;BME280;6627;50.920;12.050;2024-01-15T10:36:40;96350.00;;;7.48;43.64
13124;BME280;6627;50.920;12.050;2024-01-15T10:39:08;96437.56;;;8.06;43.52
13124;BME280;6627;50.920;12.050;2024-01-15T10:41:36;96418.34;;;8.20;43.01
13124;BME280;6627;50.920;12.050;2024-01-15T10:44:05;96419.66;;;8.26;42.69
13124;BME280;6627;50.920;12.050;2024-01-15T10:46:35;96539.66;;;9.01;42.23
13124;BME280;6627;50.920;12.050;2024-01-15T10:49:04;96448.00;;;8.76;42.07
13124;BME280;6627;50.920;12.050;2024-01-15T10:51:32;96339.16;;;8.13;42.42
13124;BME280;6627;50.920;12.050;2024-01-15T10:54:01;96336.69;;;8.20;41.92
13124;BME280;6627;50.920;12.050;2024-01-15T10:56:36;96273.84;;;8.03;42.21
13124;BME280;6627;50.920;12.050;2024-01-15T10:59:08;96300.41;;;8.17;41.80
13124;BME280;6627;50.920;12.050;2024-01-15T11:01:37;96375.03;;;8.41;42.41
13124;BME280;6627;50.920;12.050;2024-01-15T11:04:05;96449.13;;;9.03;42.03
13124;BME280;6627;50.920;12.050;2024-01-15T11:06:42;96391.84;;;8.66;42.29
13124;BME280;6627;50.920;12.050;2024-01-15T11:09:12;96303.78;;;8.14;42.58
13124;BME280;6627;50.920;12.050;2024-01-15T11:11:45;96305.84;;;8.05;42.87
13124;BME280;6627;50.920;12.050;2024-01-15T11:14:38;96356.16;;;8.57;42.28
13124;BME280;6627;50.920;12.050;2024-01-15T11:17:08;96461.72;;;9.15;41.95
13124;BME280;6627;50.920;12.050;2024-01-15T11:19:37;96333.81;;;8.88;41.29
13124;BME280;6627;50.920;12.050;2024-01-15T11:22:47;96295.41;;;8.63;41.23
13124;BME280;6627;50.920;12.050;2024-01-15T11:25:13;96169.34;;;7.81;42.12
13124;BME280;6627;50.920;12.050;2024-01-15T11:27:46;96408.59;;;8.88;42.30
13124;BME280;6627;50.920;12.050;2024-01-15T11:30:25;96216.69;;;7.82;42.55
13124;BME280;6627;50.920;12.050;2024-01-15T11:33:33;96488.06;;;9.50;41.60
13124;BME280;6627;50.920;12.050;2024-01-15T11:36:04;96308.06;;;8.59;41.88
13124;BME280;6627;50.920;12.050;2024-01-15T11:38:41;96348.16;;;8.76;41.67
13124;BME280;6627;50.920;12.050;2024-01-15T11:41:27;96389.78;;;8.75;42.17
13124;BME280;6627;50.920;12.050;2024-01-15T11:43:57;96423.91;;;8.83;42.56
13124;BME280;6627;50.920;12.050;2024-01-15T11:46:35;96344.06;;;8.67;42.14
13124;BME280;6627;50.920;12.050;2024-01-15T11:49:50;96287.53;;;8.26;42.55
13124;BME280;6627;50.920;12.050;2024-01-15T11:52:24;96300.31;;;8.42;42.29
13124;BME280;6627;50.920;12.050;2024-01-15T11:55:01;96331.78;;;8.53;42.31
13124;BME280;6627;50.920;12.050;2024-01-15T11:57:41;96361.47;;;8.53;42.87
13124;BME280;6627;50.920;12.050;2024-01-15T12:00:12;96482.38;;;9.07;43.06
13124;BME280;6627;50.920;12.050;2024-01-15T12:02:45;96407.91;;;8.91;42.37
13124;BME280;6627;50.920;12.050;2024-01-15T12:05:18;96284.16;;;8.29;42.67
13124;BME280;6627;50.920;12.050;2024-01-15T12:07:48;96453.56;;;9.43;41.92
13124;BME280;6627;50.920;12.050;2024-01-15T12:10:19;96358.25;;;9.11;41.65
13124;BME280;6627;50.920;12.050;2024-01-15T12:13:11;96233.13;;;8.37;42.24
13124;BME280;6627;50.920;12.050;2024-01-15T12:16:02;96496.03;;;9.94;41.42
13124;BME280;6627;50.920;12.050;2024-01-15T12:18:33;96350.75;;;9.20;41.42
13124;BME280;6627;50.920;12.050;2024-01-15T12:21:00;96388.84;;;9.31;41.62
13124;BME280;6627;50.920;12.050;2024-01-15T12:23:47;96375.34;;;9.31;41.55
13124;BME280;6627;50.920;12.050;2024-01-15T12:26:17;96319.53;;;9.03;41.45
13124;BME280;6627;50.920;12.050;2024-01-15T12:29:06;96269.31;;;8.99;41.09
13124;BME280;6627;50.920;12.050;2024-01-15T12:31:34;96255.47;;;8.84;41.46
13124;BME280;6627;50.920;12.050;2024-01-15T12:34:08;96216.50;;;8.34;42.12
13124;BME280;6627;50.920;12.050;2024-01-15T12:36:35;96354.00;;;9.10;41.91
13124;BME280;6627;50.920;12.050;2024-01-15T12:39:22;96385.63;;;9.60;40.98
13124;BME280;6627;50.920;12.050;2024-01-15T12:41:49;96326.91;;;9.22;41.21
13124;BME280;6627;50.920;12.050;2024-01-15T12:44:23;96282.72;;;8.79;42.04
13124;BME280;6627;50.920;12.050;2024-01-15T12:46:51;96334.50;;;9.17;41.26
13124;BME280;6627;50.920;12.050;2024-01-15T12:49:20;96374.69;;;9.38;41.56
13124;BME280;6627;50.920;12.050;2024-01-15T12:52:04;96289.66;;;8.80;41.73
13124;BME280;6627;50.920;12.050;2024-01-15T12:54:33;96329.00;;;9.13;41.46
13124;BME280;6627;50.920;12.050;2024-01-15T12:57:00;96308.19;;;8.98;41.59
13124;BME280;6627;50.920;12.050;2024-01-15T12:59:28;96415.88;;;9.66;40.82
13124;BME280;6627;50.920;12.050;2024-01-15T13:01:56;96298.44;;;9.09;41.25
13124;BME280;6627;50.920;12.050;2024-01-15T13:04:25;96380.94;;;9.57;41.00
13124;BME280;6627;50.920;12.050;2024-01-15T13:06:53;96243.66;;;8.73;41.56
13124;BME280;6627;50.920;12.050;2024-01-15T13:09:21;96322.28;;;9.23;41.07
13124;BME280;6627;50.920;12.050;2024-01-15T13:11:50;96275.00;;;9.13;41.05
13124;BME280;6627;50.920;12.050;2024-01-15T13:14:20;96212.06;;;8.58;41.67
13124;BME280;6627;50.920;12.050;2024-01-15T13:16:48;96240.25;;;8.61;42.06
13124;BME280;6627;50.920;12.050;2024-01-15T13:19:22;96317.94;;;9.18;41.37
13124;BME280;6627;50.920;12.050;2024-01-15T13:21:52;96305.50;;;8.98;42.05
13124;BME280;6627;50.920;12.050;2024-01-15T13:24:21;96207.91;;;8.45;42.21
13124;BME280;6627;50.920;12.050;2024-01-15T13:26:53;96135.56;;;7.83;42.96
13124;BME280;6627;50.920;12.050;2024-01-15T13:29:21;96274.38;;;8.53;42.83
13124;BME280;6627;50.920;12.050;2024-01-15T13:32:08;96469.41;;;9.45;42.87